Time;durP1;ratioP1;P1;durP2;ratioP2;P2;SDS_P1;SDS_P2;PMS_P1;PMS_P2;Temp;Humidity;BMP_temperature;BMP_pressure;BME280_temperature;BME280_humidity;BME280_pressure;Samples;Min_cycle;Max_cycle;Signal;HPM_P1;HPM_P2
2022/07/18 00:02:22;;;;;;;5.05;4.18;;;22.80;1.00;;;;;;5090323;28;20140;-77
2022/07/18 00:04:48;;;;;;;4.72;4.20;;;22.60;1.00;;;;;;5089294;28;20016;-77
2022/07/18 00:07:14;;;;;;;4.90;3.80;;;22.40;1.00;;;;;;5090796;28;20083;-76
2022/07/18 00:09:40;;;;;;;5.43;3.97;;;22.40;1.00;;;;;;5091110;28;20530;-77
2022/07/18 00:12:07;;;;;;;4.55;4.15;;;22.30;1.00;;;;;;5092626;28;20020;-77
2022/07/18 00:14:33;;;;;;;5.20;3.90;;;22.20;1.00;;;;;;5090223;28;20043;-76
2022/07/18 00:16:59;;;;;;;4.38;3.72;;;22.30;1.00;;;;;;5090306;28;20024;-77
2022/07/18 00:19:25;;;;;;;4.75;3.97;;;22.20;1.00;;;;;;5081927;28;20035;-77
2022/07/18 00:21:50;;;;;;;6.15;3.70;;;22.20;1.00;;;;;;5090848;28;20093;-77
2022/07/18 00:24:16;;;;;;;5.15;3.90;;;22.10;1.00;;;;;;5092270;28;20039;-76
2022/07/18 00:26:42;;;;;;;5.05;4.03;;;21.90;1.00;;;;;;5090685;28;20048;-77
2022/07/18 00:29:08;;;;;;;4.60;4.20;;;22.00;1.00;;;;;;5089933;28;20395;-77
2022/07/18 00:31:34;;;;;;;4.60;4.13;;;21.90;1.00;;;;;;5090121;28;20027;-77
2022/07/18 00:34:00;;;;;;;9.27;4.10;;;21.80;1.00;;;;;;5090242;28;20032;-77
2022/07/18 00:36:28;;;;;;;5.07;3.80;;;21.80;1.00;;;;;;5091320;28;20027;-77
2022/07/18 00:38:54;;;;;;;4.95;4.05;;;21.90;1.00;;;;;;5102759;28;20028;-77
2022/07/18 00:41:19;;;;;;;5.10;3.60;;;21.90;1.00;;;;;;5090095;28;20042;-77
2022/07/18 00:43:45;;;;;;;5.28;4.10;;;22.00;1.00;;;;;;5089914;28;20026;-77
2022/07/18 00:46:11;;;;;;;5.88;3.85;;;22.00;1.00;;;;;;5090045;28;20052;-77
2022/07/18 00:48:41;;;;;;;4.40;4.00;;;22.00;1.00;;;;;;5090267;28;20570;-77
2022/07/18 00:51:07;;;;;;;3.88;3.58;;;21.90;1.00;;;;;;5092209;28;20396;-77
2022/07/18 00:53:33;;;;;;;5.25;3.85;;;22.00;1.00;;;;;;5088670;28;20109;-76
2022/07/18 00:56:00;;;;;;;5.25;4.35;;;21.90;1.00;;;;;;5089610;28;20040;-76
2022/07/18 00:58:26;;;;;;;9.50;4.38;;;21.90;1.00;;;;;;5089529;28;20028;-77
2022/07/18 01:03:36;;;;;;;5.85;4.05;;;21.70;1.00;;;;;;5090477;28;20093;-77
2022/07/18 01:06:02;;;;;;;4.72;4.28;;;21.70;1.00;;;;;;5091807;28;20099;-77
2022/07/18 01:08:28;;;;;;;4.72;4.25;;;21.70;1.00;;;;;;5089793;28;20381;-77
2022/07/18 01:10:54;;;;;;;5.60;4.32;;;21.40;1.00;;;;;;5089777;28;20024;-76
2022/07/18 01:13:20;;;;;;;4.90;4.40;;;21.50;1.00;;;;;;5089951;28;20028;-77
2022/07/18 01:15:46;;;;;;;5.43;4.30;;;21.50;1.00;;;;;;5093747;28;20032;-77
2022/07/18 01:18:12;;;;;;;6.15;4.45;;;21.40;1.00;;;;;;5091279;28;20020;-77
2022/07/18 01:20:38;;;;;;;5.72;3.97;;;21.40;1.00;;;;;;5093580;28;20038;-77
2022/07/18 01:23:04;;;;;;;4.20;3.90;;;21.30;1.00;;;;;;5092317;28;20074;-77
2022/07/18 01:25:30;;;;;;;4.75;4.30;;;21.20;1.00;;;;;;5093667;28;20484;-76
2022/07/18 01:27:56;;;;;;;5.55;4.50;;;21.20;1.00;;;;;;5093608;28;20023;-77
2022/07/18 01:30:23;;;;;;;5.15;4.20;;;21.10;1.00;;;;;;5095133;28;20056;-77
2022/07/18 01:33:00;;;;;;;4.55;4.15;;;21.10;1.00;;;;;;5094510;28;20116;-77
2022/07/18 01:35:27;;;;;;;4.90;4.50;;;21.00;1.00;;;;;;5093226;28;20099;-77
2022/07/18 01:37:55;;;;;;;5.10;4.30;;;21.10;1.00;;;;;;5093438;28;20034;-76
2022/07/18 01:40:21;;;;;;;5.32;4.07;;;21.10;1.00;;;;;;5093424;28;20035;-77
2022/07/18 01:42:47;;;;;;;4.97;4.40;;;21.00;1.00;;;;;;5093397;28;20507;-77
2022/07/18 01:45:13;;;;;;;5.72;4.20;;;20.90;1.00;;;;;;5095449;28;20506;-77
2022/07/18 01:47:39;;;;;;;4.60;4.20;;;20.90;1.00;;;;;;5093144;28;20040;-76
2022/07/18 01:50:05;;;;;;;5.03;3.80;;;21.10;1.00;;;;;;5093155;28;20572;-77
2022/07/18 01:52:31;;;;;;;7.95;4.10;;;21.00;1.00;;;;;;5093526;28;20507;-77
2022/07/18 01:54:57;;;;;;;4.75;4.20;;;20.90;1.00;;;;;;5093264;28;20032;-77
2022/07/18 01:57:23;;;;;;;5.82;3.80;;;20.90;1.00;;;;;;5094087;28;20028;-77
2022/07/18 01:59:49;;;;;;;4.85;4.30;;;20.80;1.00;;;;;;5093759;28;20032;-76
2022/07/18 02:02:15;;;;;;;4.60;4.20;;;20.90;1.00;;;;;;5091510;28;20032;-76
2022/07/18 02:07:35;;;;;;;5.20;4.10;;;20.80;1.00;;;;;;5092944;28;20039;-77
2022/07/18 02:10:12;;;;;;;5.03;4.05;;;20.80;1.00;;;;;;5093294;28;20403;-76
2022/07/18 02:12:38;;;;;;;5.68;4.38;;;20.70;1.00;;;;;;5092693;28;20061;-76
2022/07/18 02:15:06;;;;;;;4.40;4.00;;;20.70;1.00;;;;;;5095002;28;20028;-77
2022/07/18 02:17:33;;;;;;;4.68;4.22;;;20.80;1.00;;;;;;5092695;28;20507;-76
2022/07/18 02:19:59;;;;;;;6.55;4.30;;;20.60;1.00;;;;;;5092642;28;20036;-77
2022/07/18 02:22:24;;;;;;;4.43;4.03;;;20.60;1.00;;;;;;5092973;28;20047;-77
2022/07/18 02:24:51;;;;;;;4.70;4.30;;;20.70;1.00;;;;;;5092184;28;20016;-76
2022/07/18 02:27:17;;;;;;;4.75;4.22;;;20.50;1.00;;;;;;5094405;28;20090;-76
2022/07/18 02:29:43;;;;;;;7.15;4.38;;;20.40;1.00;;;;;;5092834;28;20656;-77
2022/07/18 02:32:09;;;;;;;5.85;4.28;;;20.40;1.00;;;;;;5092458;28;20038;-77
2022/07/18 02:34:36;;;;;;;4.45;3.95;;;20.40;1.00;;;;;;5092391;28;20566;-77
2022/07/18 02:37:02;;;;;;;4.75;4.05;;;20.40;1.00;;;;;;5092378;28;20024;-77
2022/07/18 02:39:28;;;;;;;4.53;4.10;;;20.30;1.00;;;;;;5092994;28;20032;-76
2022/07/18 02:41:54;;;;;;;4.63;4.22;;;20.10;1.00;;;;;;5092088;28;20035;-76
2022/07/18 02:44:20;;;;;;;4.55;4.15;;;20.10;1.00;;;;;;5092159;28;20031;-76
2022/07/18 02:46:46;;;;;;;4.43;4.05;;;20.00;1.00;;;;;;5092134;28;20052;-76
2022/07/18 02:49:26;;;;;;;5.50;4.32;;;19.90;1.00;;;;;;5090925;28;20444;-76
2022/07/18 02:51:55;;;;;;;4.68;4.10;;;19.90;1.00;;;;;;5077102;28;20051;-76
2022/07/18 02:54:21;;;;;;;5.13;4.63;;;19.90;1.00;;;;;;5093026;28;20476;-76
2022/07/18 02:56:47;;;;;;;5.75;4.30;;;20.00;1.00;;;;;;5092710;28;20373;-76
2022/07/18 02:59:13;;;;;;;5.05;4.40;;;19.90;1.00;;;;;;5092241;28;20099;-76
2022/07/18 03:01:38;;;;;;;4.93;4.28;;;19.90;1.00;;;;;;5091666;28;20036;-76
2022/07/18 03:04:04;;;;;;;5.70;4.45;;;19.90;1.00;;;;;;5091964;28;20062;-77
2022/07/18 03:06:29;;;;;;;9.05;4.40;;;19.80;1.00;;;;;;5074390;28;20476;-76
2022/07/18 03:08:55;;;;;;;5.03;4.53;;;19.80;1.00;;;;;;5093389;28;20039;-76
2022/07/18 03:11:21;;;;;;;4.88;4.38;;;19.80;1.00;;;;;;5091528;28;20036;-76
2022/07/18 03:13:46;;;;;;;4.90;4.38;;;19.90;1.00;;;;;;5092059;28;20048;-76
2022/07/18 03:16:12;;;;;;;4.82;4.35;;;19.90;1.00;;;;;;5091501;28;20028;-76
2022/07/18 03:18:38;;;;;;;6.95;4.40;;;19.80;1.00;;;;;;5091352;28;20029;-77
2022/07/18 03:21:04;;;;;;;6.63;4.50;;;19.80;1.00;;;;;;5092604;28;20020;-76
2022/07/18 03:23:30;;;;;;;5.03;4.53;;;19.60;1.00;;;;;;5090794;28;20047;-76
2022/07/18 03:25:55;;;;;;;5.13;4.30;;;19.60;1.00;;;;;;5091216;28;20036;-76
2022/07/18 03:28:21;;;;;;;4.45;4.05;;;19.60;1.00;;;;;;5091572;28;20147;-76
2022/07/18 03:30:46;;;;;;;6.18;4.07;;;19.40;1.00;;;;;;5091496;28;20026;-76
2022/07/18 03:33:12;;;;;;;5.18;4.53;;;19.40;1.00;;;;;;5093668;28;20016;-76
2022/07/18 03:35:38;;;;;;;7.43;4.55;;;19.40;1.00;;;;;;5072607;28;20447;-77
2022/07/18 03:38:04;;;;;;;5.28;4.45;;;19.50;1.00;;;;;;5090436;28;20095;-76
2022/07/18 03:40:29;;;;;;;8.50;5.05;;;19.50;1.00;;;;;;5091043;28;20051;-77
2022/07/18 03:42:55;;;;;;;4.82;4.32;;;19.50;1.00;;;;;;5091458;28;20044;-76
2022/07/18 03:45:20;;;;;;;4.50;4.18;;;19.40;1.00;;;;;;5092473;28;20056;-76
2022/07/18 03:47:46;;;;;;;5.18;4.53;;;19.60;1.00;;;;;;5073444;28;20066;-76
2022/07/18 03:50:12;;;;;;;5.57;4.25;;;19.50;1.00;;;;;;5090783;28;20020;-76
2022/07/18 03:52:37;;;;;;;7.63;4.65;;;19.50;1.00;;;;;;5090516;28;20043;-77
2022/07/18 03:55:03;;;;;;;4.75;4.32;;;19.60;1.00;;;;;;5090796;28;20074;-77
2022/07/18 03:57:29;;;;;;;5.28;4.78;;;19.60;1.00;;;;;;5092228;28;20077;-76
2022/07/18 03:59:55;;;;;;;4.53;4.13;;;19.70;1.00;;;;;;5090325;28;20103;-76
2022/07/18 04:02:20;;;;;;;4.70;4.20;;;19.70;1.00;;;;;;5090593;28;20047;-76
2022/07/18 04:04:46;;;;;;;4.80;4.40;;;19.60;1.00;;;;;;5090834;28;20028;-76
2022/07/18 04:07:11;;;;;;;4.80;4.38;;;19.50;1.00;;;;;;5090186;28;20024;-76
2022/07/18 04:09:37;;;;;;;5.80;4.57;;;19.50;1.00;;;;;;5089930;28;20443;-77
2022/07/18 04:12:03;;;;;;;5.90;4.65;;;19.50;1.00;;;;;;5092758;28;20099;-76
2022/07/18 04:14:29;;;;;;;5.60;4.60;;;19.50;1.00;;;;;;5090450;28;20028;-77
2022/07/18 04:16:54;;;;;;;7.97;4.53;;;19.40;1.00;;;;;;5090380;28;20028;-76
2022/07/18 04:19:21;;;;;;;5.03;4.15;;;19.30;1.00;;;;;;5072114;28;20483;-76
2022/07/18 04:21:47;;;;;;;5.05;4.55;;;19.30;1.00;;;;;;5090159;28;20044;-76
2022/07/18 04:24:13;;;;;;;6.57;4.28;;;19.30;1.00;;;;;;5092402;28;20383;-77
2022/07/18 04:26:38;;;;;;;4.65;4.22;;;19.20;1.00;;;;;;5090241;28;20090;-76
2022/07/18 04:29:04;;;;;;;4.97;4.15;;;19.30;1.00;;;;;;5089983;28;20036;-76
2022/07/18 04:31:30;;;;;;;5.00;4.50;;;19.30;1.00;;;;;;5090093;28;20028;-77
2022/07/18 04:33:55;;;;;;;5.45;4.53;;;19.20;1.00;;;;;;5090212;28;20031;-76
2022/07/18 04:36:21;;;;;;;5.07;4.57;;;19.40;1.00;;;;;;5091095;28;20392;-76
2022/07/18 04:38:46;;;;;;;6.53;4.70;;;19.50;1.00;;;;;;5089532;28;20425;-77
2022/07/18 04:41:12;;;;;;;5.18;4.70;;;19.50;1.00;;;;;;5090016;28;20487;-76
2022/07/18 04:43:38;;;;;;;4.97;4.47;;;19.50;1.00;;;;;;5089951;28;20089;-76
2022/07/18 04:46:04;;;;;;;5.70;4.80;;;19.50;1.00;;;;;;5090494;28;20032;-77
2022/07/18 04:48:30;;;;;;;5.43;4.70;;;19.60;1.00;;;;;;5089315;28;20508;-76
2022/07/18 04:50:55;;;;;;;6.63;5.45;;;19.50;1.00;;;;;;5089472;28;20036;-77
2022/07/18 04:53:21;;;;;;;7.70;5.00;;;19.60;1.00;;;;;;5089792;28;20020;-77
2022/07/18 04:55:47;;;;;;;6.45;4.90;;;19.60;1.00;;;;;;5090234;28;20032;-76
2022/07/18 04:58:12;;;;;;;5.75;4.68;;;19.50;1.00;;;;;;5089775;28;20099;-77
2022/07/18 05:00:38;;;;;;;5.00;4.50;;;19.50;1.00;;;;;;5089697;28;20036;-76
2022/07/18 05:03:04;;;;;;;5.03;4.30;;;19.70;1.00;;;;;;5091687;28;20656;-77
2022/07/18 05:05:29;;;;;;;5.07;4.35;;;19.70;1.00;;;;;;5088819;28;20032;-77
2022/07/18 05:07:55;;;;;;;5.22;4.40;;;19.70;1.00;;;;;;5071963;28;20507;-77
2022/07/18 05:10:23;;;;;;;5.43;4.35;;;19.80;1.00;;;;;;5089658;28;20028;-77
2022/07/18 05:12:51;;;;;;;5.03;4.53;;;19.70;1.00;;;;;;5089611;28;20059;-77
2022/07/18 05:15:18;;;;;;;4.68;4.28;;;19.90;1.00;;;;;;5091688;28;20451;-78
2022/07/18 05:17:44;;;;;;;5.25;4.65;;;20.10;1.00;;;;;;5089237;28;20469;-78
2022/07/18 05:20:14;;;;;;;6.00;5.20;;;19.90;1.00;;;;;;5089125;28;20020;-78
2022/07/18 05:22:40;;;;;;;5.20;4.47;;;20.00;1.00;;;;;;5089398;28;20074;-77
2022/07/18 05:25:07;;;;;;;6.50;4.55;;;19.90;1.00;;;;;;5089905;28;20032;-77
2022/07/18 05:27:32;;;;;;;12.63;5.20;;;19.90;1.00;;;;;;5089656;28;20495;-77
2022/07/18 05:29:58;;;;;;;6.57;4.53;;;19.90;1.00;;;;;;5073478;28;20051;-77
2022/07/18 05:32:25;;;;;;;7.90;4.78;;;20.10;1.00;;;;;;5089405;28;20035;-78
2022/07/18 05:34:51;;;;;;;5.63;5.07;;;20.10;1.00;;;;;;5089394;28;20561;-78
2022/07/18 05:37:16;;;;;;;6.70;5.00;;;20.10;1.00;;;;;;5089396;28;20023;-79
2022/07/18 05:39:42;;;;;;;6.00;4.57;;;20.20;1.00;;;;;;5089602;28;20050;-79
2022/07/18 05:42:08;;;;;;;7.70;5.28;;;20.30;1.00;;;;;;5091499;28;20408;-79
2022/07/18 05:44:33;;;;;;;6.28;4.93;;;20.40;1.00;;;;;;5089439;28;20032;-79
2022/07/18 05:46:59;;;;;;;8.40;4.70;;;20.50;1.00;;;;;;5089688;28;20424;-79
2022/07/18 05:49:24;;;;;;;7.72;4.88;;;20.60;1.00;;;;;;5089216;28;20496;-79
2022/07/18 05:51:50;;;;;;;6.03;4.35;;;20.60;1.00;;;;;;5089476;28;20078;-79
2022/07/18 05:54:18;;;;;;;8.18;4.60;;;20.60;1.00;;;;;;5091278;28;20031;-79
2022/07/18 05:56:53;;;;;;;5.30;4.80;;;20.70;1.00;;;;;;5088522;28;20024;-79
2022/07/18 05:59:21;;;;;;;8.40;5.15;;;20.70;1.00;;;;;;5090085;28;20038;-79
2022/07/18 06:01:47;;;;;;;6.68;5.15;;;20.80;1.00;;;;;;5092856;28;20111;-79
2022/07/18 06:04:13;;;;;;;5.90;4.80;;;20.80;1.00;;;;;;5092683;28;20103;-79
2022/07/18 06:06:39;;;;;;;10.13;5.10;;;21.00;1.00;;;;;;5093159;28;20043;-79
2022/07/18 06:09:05;;;;;;;8.55;4.93;;;21.00;1.00;;;;;;5095172;28;20035;-79
2022/07/18 06:11:32;;;;;;;7.45;4.85;;;21.10;1.00;;;;;;5092651;28;20028;-79
2022/07/18 06:13:58;;;;;;;8.32;4.60;;;21.20;1.00;;;;;;5093163;28;20166;-79
2022/07/18 06:16:23;;;;;;;7.55;5.00;;;21.20;1.00;;;;;;5092777;28;20025;-79
2022/07/18 06:18:49;;;;;;;6.85;4.53;;;21.30;1.00;;;;;;5092253;28;20394;-77
2022/07/18 06:21:15;;;;;;;11.20;5.00;;;21.40;1.00;;;;;;5095052;28;20047;-77
2022/07/18 06:23:40;;;;;;;5.15;4.45;;;21.50;1.00;;;;;;5092619;28;20047;-76
2022/07/18 06:26:06;;;;;;;8.27;5.57;;;21.50;1.00;;;;;;5092740;28;20024;-77
2022/07/18 06:28:32;;;;;;;7.95;5.50;;;21.50;1.00;;;;;;5092250;28;20055;-77
2022/07/18 06:30:58;;;;;;;12.48;4.93;;;21.60;1.00;;;;;;5092571;28;20024;-77
2022/07/18 06:33:24;;;;;;;8.70;4.75;;;21.80;1.00;;;;;;5092972;28;20498;-77
2022/07/18 06:35:50;;;;;;;20.52;5.60;;;21.80;1.00;;;;;;5092543;28;20032;-77
2022/07/18 06:38:16;;;;;;;7.00;4.93;;;21.80;1.00;;;;;;5092199;28;20511;-76
2022/07/18 06:40:43;;;;;;;6.72;4.65;;;21.90;1.00;;;;;;5092175;28;20508;-76
2022/07/18 06:43:08;;;;;;;7.30;4.55;;;22.00;1.00;;;;;;5092305;28;20115;-77
2022/07/18 06:45:34;;;;;;;5.95;4.60;;;22.20;1.00;;;;;;5092397;28;20048;-76
2022/07/18 06:48:00;;;;;;;6.93;4.60;;;22.40;1.00;;;;;;5093618;28;20107;-77
2022/07/18 06:50:26;;;;;;;7.38;4.47;;;22.50;1.00;;;;;;5091760;28;20032;-77
2022/07/18 06:52:52;;;;;;;6.57;4.78;;;22.50;1.00;;;;;;5092075;28;20534;-76
2022/07/18 06:55:17;;;;;;;7.53;4.55;;;22.70;1.00;;;;;;5091974;28;20032;-77
2022/07/18 06:57:44;;;;;;;8.15;5.25;;;22.80;1.00;;;;;;5092105;28;20047;-77
2022/07/18 07:00:13;;;;;;;6.45;4.65;;;22.90;1.00;;;;;;5093992;28;20090;-77
2022/07/18 07:02:48;;;;;;;6.93;4.28;;;22.80;1.00;;;;;;5091628;28;20067;-77
2022/07/18 07:05:17;;;;;;;7.22;4.43;;;22.90;1.00;;;;;;5091692;28;20024;-77
2022/07/18 07:07:43;;;;;;;9.00;4.60;;;23.10;1.00;;;;;;5091867;28;20020;-76
2022/07/18 07:10:09;;;;;;;8.55;4.88;;;23.20;1.00;;;;;;5091841;28;20031;-77
2022/07/18 07:12:43;;;;;;;8.85;5.00;;;23.30;1.00;;;;;;5090931;28;20028;-77
2022/07/18 07:15:09;;;;;;;9.35;4.43;;;23.20;1.00;;;;;;5093389;28;20503;-76
2022/07/18 07:17:36;;;;;;;9.93;5.18;;;23.30;1.00;;;;;;5091439;28;20024;-77
2022/07/18 07:20:02;;;;;;;9.05;4.65;;;23.40;1.00;;;;;;5091844;28;20058;-77
2022/07/18 07:22:28;;;;;;;9.23;4.85;;;23.50;1.00;;;;;;5089879;28;20126;-77
2022/07/18 07:24:54;;;;;;;10.55;4.93;;;23.60;1.00;;;;;;5091893;28;20547;-77
2022/07/18 07:27:19;;;;;;;13.45;5.40;;;23.70;1.00;;;;;;5092764;28;20012;-77
2022/07/18 07:29:45;;;;;;;13.07;5.40;;;23.70;1.00;;;;;;5091629;28;20454;-77
2022/07/18 07:32:10;;;;;;;11.48;5.55;;;23.70;1.00;;;;;;5072956;28;20059;-77
2022/07/18 07:34:36;;;;;;;21.67;5.68;;;23.80;1.00;;;;;;5091347;28;20523;-77
2022/07/18 07:37:02;;;;;;;9.98;4.57;;;23.90;1.00;;;;;;5091639;28;20024;-77
2022/07/18 07:39:27;;;;;;;17.13;5.32;;;24.10;1.00;;;;;;5091185;28;20420;-77
2022/07/18 07:41:53;;;;;;;9.27;4.95;;;24.20;1.00;;;;;;5093113;28;20058;-77
2022/07/18 07:44:18;;;;;;;10.07;5.32;;;24.30;1.00;;;;;;5090567;28;20051;-77
2022/07/18 07:46:44;;;;;;;12.68;4.55;;;24.30;1.00;;;;;;5090686;28;20020;-77
2022/07/18 07:49:10;;;;;;;10.60;4.68;;;24.40;1.00;;;;;;5091128;28;20036;-77
2022/07/18 07:51:35;;;;;;;13.88;4.93;;;24.40;1.00;;;;;;5091320;28;20044;-77
2022/07/18 07:54:02;;;;;;;11.02;4.50;;;24.50;1.00;;;;;;5091324;28;20101;-77
2022/07/18 07:56:28;;;;;;;8.43;5.07;;;24.60;1.00;;;;;;5090845;28;20020;-77
2022/07/18 07:58:53;;;;;;;11.20;5.15;;;24.80;1.00;;;;;;5090854;28;20428;-77
2022/07/18 08:01:19;;;;;;;13.73;5.35;;;24.80;1.00;;;;;;5090505;28;20020;-77
2022/07/18 08:03:48;;;;;;;8.27;4.72;;;24.90;1.00;;;;;;5091233;28;20079;-77
2022/07/18 08:06:14;;;;;;;10.13;4.80;;;25.10;1.00;;;;;;5088344;28;20020;-77
2022/07/18 08:08:40;;;;;;;12.57;5.05;;;25.10;1.00;;;;;;5090146;28;20106;-78
2022/07/18 08:11:06;;;;;;;9.48;4.53;;;25.10;1.00;;;;;;5089410;28;20500;-77
2022/07/18 08:13:31;;;;;;;11.80;4.70;;;25.20;1.00;;;;;;5089963;28;20495;-77
2022/07/18 08:15:57;;;;;;;8.68;4.30;;;25.30;1.00;;;;;;5090542;28;20054;-77
2022/07/18 08:18:23;;;;;;;7.25;4.43;;;25.50;1.00;;;;;;5091284;28;20384;-77
2022/07/18 08:20:49;;;;;;;6.28;4.57;;;25.50;1.00;;;;;;5090807;28;20043;-77
2022/07/18 08:23:16;;;;;;;9.45;4.50;;;25.70;1.00;;;;;;5096596;28;20023;-77
2022/07/18 08:25:44;;;;;;;9.85;4.60;;;25.70;1.00;;;;;;5096791;28;20028;-77
2022/07/18 08:28:11;;;;;;;8.93;4.95;;;25.90;1.00;;;;;;5089397;28;20119;-77
2022/07/18 08:30:37;;;;;;;8.07;4.65;;;25.80;1.00;;;;;;5090309;28;20032;-78
2022/07/18 08:33:03;;;;;;;9.13;4.15;;;25.90;1.00;;;;;;5090946;28;20031;-77
2022/07/18 08:35:31;;;;;;;7.25;4.93;;;26.00;1.00;;;;;;5089696;28;20483;-78
2022/07/18 08:37:57;;;;;;;6.63;4.40;;;26.00;1.00;;;;;;5090269;28;20507;-78
2022/07/18 08:40:23;;;;;;;10.85;4.70;;;26.10;1.00;;;;;;5089953;28;20024;-77
2022/07/18 08:42:54;;;;;;;8.57;4.03;;;26.20;1.00;;;;;;5090161;28;20043;-77
2022/07/18 08:45:24;;;;;;;6.25;4.10;;;26.30;1.00;;;;;;5091168;28;20028;-77
2022/07/18 08:47:51;;;;;;;6.13;4.50;;;26.40;1.00;;;;;;5091227;28;20024;-77
2022/07/18 08:50:17;;;;;;;5.78;4.30;;;26.60;1.00;;;;;;5089929;28;20097;-77
2022/07/18 08:52:44;;;;;;;6.78;4.65;;;26.70;1.00;;;;;;5089903;28;20030;-77
2022/07/18 08:55:11;;;;;;;4.57;4.18;;;26.70;1.00;;;;;;5090002;28;20459;-77
2022/07/18 08:57:36;;;;;;;7.45;4.50;;;26.90;1.00;;;;;;5089614;28;20512;-77
2022/07/18 09:00:10;;;;;;;10.00;4.18;;;27.00;1.00;;;;;;5092116;28;20027;-77
2022/07/18 09:02:36;;;;;;;6.82;4.32;;;27.10;1.00;;;;;;5090243;28;20033;-77
2022/07/18 09:05:03;;;;;;;8.38;4.10;;;27.20;1.00;;;;;;5089855;28;20078;-78
2022/07/18 09:07:37;;;;;;;6.10;4.18;;;27.40;1.00;;;;;;5089694;28;20404;-77
2022/07/18 09:10:05;;;;;;;4.35;3.95;;;27.60;1.00;;;;;;5088375;28;20091;-77
2022/07/18 09:12:31;;;;;;;7.07;4.00;;;27.70;1.00;;;;;;5089860;28;20021;-79
2022/07/18 09:15:03;;;;;;;6.10;4.22;;;27.80;1.00;;;;;;5089507;28;20435;-84
2022/07/18 09:17:29;;;;;;;8.40;4.07;;;27.90;1.00;;;;;;5089539;28;20036;-79
2022/07/18 09:20:14;;;;;;;5.68;4.30;;;27.90;1.00;;;;;;5089715;28;20077;-79
2022/07/18 09:22:41;;;;;;;8.20;4.18;;;27.80;1.00;;;;;;5089900;28;20400;-79
2022/07/18 09:25:08;;;;;;;6.25;3.95;;;27.80;1.00;;;;;;5089390;28;20020;-79
2022/07/18 09:27:47;;;;;;;7.75;4.43;;;27.90;1.00;;;;;;5089184;28;20067;-78
2022/07/18 09:30:16;;;;;;;7.97;4.43;;;27.90;1.00;;;;;;5067685;28;20036;-79
2022/07/18 09:32:44;;;;;;;4.45;4.00;;;28.10;1.00;;;;;;5056727;28;20033;-78
2022/07/18 09:35:16;;;;;;;6.13;3.90;;;28.10;1.00;;;;;;5058570;28;20020;-78
2022/07/18 09:37:59;;;;;;;5.47;3.72;;;28.10;1.00;;;;;;5060539;28;20060;-78
2022/07/18 09:40:34;;;;;;;4.85;4.15;;;28.30;1.00;;;;;;5060275;28;20025;-79
2022/07/18 09:43:05;;;;;;;7.28;4.57;;;28.30;1.00;;;;;;5057608;28;20051;-79
2022/07/18 09:45:42;;;;;;;5.50;4.25;;;28.50;1.00;;;;;;5058378;28;20029;-79
2022/07/18 09:48:10;;;;;;;5.95;4.20;;;28.60;1.00;;;;;;5059663;28;20021;-79
2022/07/18 09:50:42;;;;;;;5.05;4.00;;;28.60;1.00;;;;;;5060456;28;20079;-77
2022/07/18 09:53:16;;;;;;;5.57;4.28;;;28.70;1.00;;;;;;5060511;28;20029;-79
2022/07/18 09:55:51;;;;;;;6.38;4.05;;;28.70;1.00;;;;;;5060250;28;20056;-79
2022/07/18 09:58:28;;;;;;;4.70;4.30;;;28.90;1.00;;;;;;5059717;28;20032;-76
2022/07/18 10:00:55;;;;;;;6.30;4.40;;;29.10;1.00;;;;;;5057327;28;20461;-79
2022/07/18 10:03:21;;;;;;;4.63;4.22;;;29.10;1.00;;;;;;5070778;28;20041;-80
2022/07/18 10:05:49;;;;;;;5.57;4.40;;;29.10;1.00;;;;;;5069116;28;20048;-76
2022/07/18 10:08:18;;;;;;;5.75;4.05;;;29.20;1.00;;;;;;5068102;28;20392;-79
2022/07/18 10:10:45;;;;;;;7.38;4.68;;;29.30;1.00;;;;;;5067693;28;20024;-80
2022/07/18 10:13:13;;;;;;;5.75;4.10;;;29.50;1.00;;;;;;5051845;28;20024;-79
2022/07/18 10:15:42;;;;;;;7.32;4.15;;;29.60;1.00;;;;;;5071819;28;20040;-80
2022/07/18 10:18:10;;;;;;;6.78;4.40;;;29.60;1.00;;;;;;5070019;28;20489;-79
2022/07/18 10:20:38;;;;;;;5.47;4.40;;;29.70;1.00;;;;;;5067864;28;20048;-78
2022/07/18 10:23:10;;;;;;;8.23;4.30;;;29.70;1.00;;;;;;5068081;28;20119;-79
2022/07/18 10:25:37;;;;;;;5.25;4.13;;;29.80;1.00;;;;;;5067866;28;20032;-80
2022/07/18 10:28:09;;;;;;;6.25;4.30;;;29.80;1.00;;;;;;5073667;28;20055;-79
2022/07/18 10:30:49;;;;;;;5.63;4.15;;;29.90;1.00;;;;;;5076868;28;20020;-79
2022/07/18 10:33:48;;;;;;;8.95;4.25;;;30.00;1.00;;;;;;5077099;28;20020;-79
2022/07/18 10:36:18;;;;;;;5.28;4.03;;;30.40;1.00;;;;;;5078497;28;20388;-79
2022/07/18 10:39:19;;;;;;;6.65;4.00;;;30.40;1.00;;;;;;5088473;28;20120;-79
2022/07/18 10:41:51;;;;;;;8.05;3.80;;;30.40;1.00;;;;;;5085416;28;20105;-79
2022/07/18 10:44:31;;;;;;;5.45;4.10;;;30.70;1.00;;;;;;5087683;28;20098;-78
2022/07/18 10:47:02;;;;;;;4.57;4.07;;;30.90;1.00;;;;;;5086410;28;20125;-77
2022/07/18 10:49:47;;;;;;;4.38;3.97;;;31.00;1.00;;;;;;5087620;28;20035;-78
2022/07/18 10:52:32;;;;;;;4.88;3.88;;;31.00;1.00;;;;;;5089981;28;20027;-80
2022/07/18 10:55:16;;;;;;;6.00;4.13;;;30.90;1.00;;;;;;5065502;28;20040;-77
2022/07/18 10:58:05;;;;;;;3.90;3.60;;;30.70;1.00;;;;;;5091852;28;20036;-79
2022/07/18 11:00:35;;;;;;;5.10;4.25;;;30.70;1.00;;;;;;5081250;28;20036;-78
2022/07/18 11:03:01;;;;;;;5.30;3.83;;;30.80;1.00;;;;;;5078386;28;20063;-78
2022/07/18 11:05:26;;;;;;;4.30;3.78;;;31.00;1.00;;;;;;5078820;28;20028;-79
2022/07/18 11:07:57;;;;;;;3.90;3.60;;;30.90;1.00;;;;;;5078636;28;20025;-77
2022/07/18 11:10:41;;;;;;;4.38;4.03;;;31.00;1.00;;;;;;5079310;28;20028;-79
2022/07/18 11:15:54;;;;;;;5.15;4.30;;;31.20;1.00;;;;;;5074949;28;20024;-78
2022/07/18 11:18:19;;;;;;;4.40;3.80;;;31.30;1.00;;;;;;5077072;28;20102;-79
2022/07/18 11:20:45;;;;;;;4.18;3.78;;;31.30;1.00;;;;;;5078852;28;20044;-78
2022/07/18 11:23:20;;;;;;;4.10;3.80;;;31.40;1.00;;;;;;5078221;28;20439;-80
2022/07/18 11:25:49;;;;;;;5.40;3.92;;;31.40;1.00;;;;;;5079150;28;20397;-79
2022/07/18 11:28:15;;;;;;;6.60;4.03;;;31.60;1.00;;;;;;5077675;28;20354;-78
2022/07/18 11:30:41;;;;;;;4.70;3.95;;;31.80;1.00;;;;;;5091712;28;20040;-80
2022/07/18 11:33:25;;;;;;;6.70;4.15;;;31.80;1.00;;;;;;5093595;28;20107;-78
2022/07/18 11:35:51;;;;;;;6.85;3.85;;;32.00;1.00;;;;;;5092344;28;20031;-78
2022/07/18 11:38:17;;;;;;;4.88;3.85;;;31.90;1.00;;;;;;5091009;28;20057;-78
2022/07/18 11:40:47;;;;;;;5.22;3.58;;;32.20;1.00;;;;;;5090172;28;20028;-79
2022/07/18 11:43:23;;;;;;;3.78;3.42;;;32.30;1.00;;;;;;5090533;28;20036;-78
2022/07/18 11:45:59;;;;;;;6.32;3.95;;;32.60;1.00;;;;;;5088632;28;20138;-80
2022/07/18 11:48:25;;;;;;;4.05;3.75;;;33.20;1.00;;;;;;5092660;28;20036;-79
2022/07/18 11:50:50;;;;;;;6.97;4.00;;;33.90;1.00;;;;;;5091095;28;20115;-80
2022/07/18 11:53:16;;;;;;;4.15;3.75;;;34.90;1.00;;;;;;5090877;28;20020;-80
2022/07/18 11:55:42;;;;;;;3.80;3.50;;;36.70;1.00;;;;;;5090990;28;20024;-77
2022/07/18 11:58:08;;;;;;;4.30;3.90;;;38.60;1.00;;;;;;5090751;28;20074;-80
2022/07/18 12:00:34;;;;;;;6.18;3.78;;;39.90;1.00;;;;;;5091223;28;20031;-80
2022/07/18 12:03:16;;;;;;;5.82;4.00;;;41.00;1.00;;;;;;5092133;28;20040;-80
2022/07/18 12:05:44;;;;;;;5.35;3.63;;;41.40;1.00;;;;;;5090065;28;20020;-87
2022/07/18 12:08:38;;;;;;;4.25;3.53;;;42.20;1.00;;;;;;5090176;28;20031;-82
2022/07/18 12:11:09;;;;;;;5.05;3.60;;;42.40;1.00;;;;;;5090375;28;20024;-80
2022/07/18 12:13:45;;;;;;;3.85;3.53;;;42.20;1.00;;;;;;5091217;28;20024;-80
2022/07/18 12:16:33;;;;;;;4.38;3.45;;;43.20;1.00;;;;;;5090785;28;20383;-80
2022/07/18 12:19:12;;;;;;;3.80;3.50;;;43.70;1.00;;;;;;5076208;28;20030;-79
2022/07/18 12:22:04;;;;;;;3.70;3.40;;;44.00;1.00;;;;;;5089835;28;20102;-79
2022/07/18 12:24:56;;;;;;;5.05;3.22;;;44.60;1.00;;;;;;5088858;28;20036;-79
2022/07/18 12:27:25;;;;;;;4.10;3.60;;;44.20;1.00;;;;;;5089070;28;20103;-77
2022/07/18 12:30:08;;;;;;;5.68;3.28;;;44.40;1.00;;;;;;5091711;28;20048;-79
2022/07/18 12:32:43;;;;;;;4.60;3.60;;;44.00;1.00;;;;;;5090211;28;20032;-77
2022/07/18 12:35:15;;;;;;;5.00;3.15;;;44.90;1.00;;;;;;5089912;28;20028;-79
2022/07/18 12:37:41;;;;;;;3.83;3.40;;;45.30;1.00;;;;;;5089866;28;20058;-79
2022/07/18 12:40:09;;;;;;;5.38;4.80;;;44.90;1.00;;;;;;5090575;28;20523;-77
2022/07/18 12:42:40;;;;;;;3.42;3.13;;;44.80;1.00;;;;;;5089916;28;20089;-77
2022/07/18 12:45:07;;;;;;;3.58;3.03;;;45.10;1.00;;;;;;5092384;28;20024;-79
2022/07/18 12:47:34;;;;;;;4.70;3.00;;;45.20;1.00;;;;;;5089893;28;20024;-79
2022/07/18 12:50:00;;;;;;;3.50;3.00;;;45.40;1.00;;;;;;5089647;28;20186;-79
2022/07/18 12:52:26;;;;;;;3.22;2.95;;;45.40;1.00;;;;;;5090019;28;20479;-79
2022/07/18 12:54:52;;;;;;;3.50;3.20;;;45.40;1.00;;;;;;5090527;28;20048;-79
2022/07/18 12:57:18;;;;;;;3.10;2.90;;;44.10;1.00;;;;;;5091838;28;20118;-80
2022/07/18 12:59:45;;;;;;;3.65;2.70;;;44.20;1.00;;;;;;5090002;28;20097;-79
2022/07/18 13:02:11;;;;;;;3.25;2.95;;;43.50;1.00;;;;;;5089155;28;20043;-79
2022/07/18 13:04:37;;;;;;;3.42;2.65;;;42.10;1.00;;;;;;5087588;28;20392;-80
2022/07/18 13:07:03;;;;;;;4.78;2.78;;;43.20;1.00;;;;;;5089876;28;20381;-80
2022/07/18 13:09:28;;;;;;;5.60;2.90;;;43.40;1.00;;;;;;5089722;28;20301;-79